createdAt,value
2019-01-17T00:00:03.233Z,94.9
2019-01-17T00:01:03.408Z,95.4
2019-01-17T00:02:03.025Z,94.9
2019-01-17T00:03:03.080Z,96.1
2019-01-17T00:04:03.665Z,97
2019-01-17T00:05:02.849Z,96.1
2019-01-17T00:06:02.751Z,98
2019-01-17T00:07:03.205Z,96.3
2019-01-17T00:08:03.786Z,96.8
2019-01-17T00:09:02.948Z,95.9
2019-01-17T00:10:03.586Z,94.5
2019-01-17T00:11:03.236Z,96.1
2019-01-17T00:12:03.338Z,94.5
2019-01-17T00:13:03.298Z,95.9
2019-01-17T00:14:02.917Z,95.2
2019-01-17T00:15:02.957Z,96.6
2019-01-17T00:16:02.778Z,94.7
2019-01-17T00:17:03.143Z,95.2
2019-01-17T00:18:03.341Z,94.2
2019-01-17T00:19:02.752Z,94.7
2019-01-17T00:20:03.566Z,95.2
2019-01-17T00:21:02.887Z,95.6
2019-01-17T00:22:03.586Z,95.2
2019-01-17T00:23:03.383Z,95.4
2019-01-17T00:24:03.109Z,95.9
2019-01-17T00:25:03.730Z,94.5
2019-01-17T00:26:03.782Z,94.5
2019-01-17T00:27:02.908Z,94.9
2019-01-17T00:28:02.827Z,93.3
2019-01-17T00:29:03.110Z,91.2
2019-01-17T00:30:02.991Z,91.7
2019-01-17T00:31:03.246Z,90.3
2019-01-17T00:32:03.301Z,89.6
2019-01-17T00:33:02.938Z,89.6
2019-01-17T00:34:02.696Z,88.9
2019-01-17T00:35:02.957Z,87.2
2019-01-17T00:36:02.925Z,86.5
2019-01-17T00:37:03.504Z,87.2
2019-01-17T00:38:03.679Z,87.7
2019-01-17T00:39:03.599Z,87.9
2019-01-17T00:40:03.141Z,85.4
2019-01-17T00:41:03.159Z,87.9
2019-01-17T00:42:03.852Z,86.8
2019-01-17T00:43:03.419Z,88.2
2019-01-17T00:44:03.665Z,85.6
2019-01-17T00:45:03.268Z,86.3
2019-01-17T00:46:03.580Z,85.4
2019-01-17T00:47:03.005Z,86.3
2019-01-17T00:48:03.208Z,86.1
2019-01-17T00:49:02.844Z,88.2
2019-01-17T00:50:03.731Z,88.2
2019-01-17T00:51:03.068Z,89.1
2019-01-17T00:52:03.049Z,88.6
2019-01-17T00:53:03.565Z,90
2019-01-17T00:54:09.408Z,88.4
2019-01-17T00:55:03.303Z,89.8
2019-01-17T00:56:03.824Z,89.6
2019-01-17T00:57:03.518Z,88.6
2019-01-17T00:58:03.740Z,90.5
2019-01-17T00:59:03.074Z,88.9
2019-01-17T01:00:02.761Z,91.7
2019-01-17T01:01:03.633Z,92.1
2019-01-17T01:02:04.170Z,91.4
2019-01-17T01:03:03.599Z,93.1
2019-01-17T01:04:03.901Z,91.9
2019-01-17T01:05:03.564Z,92.4
2019-01-17T01:06:02.800Z,92.4
2019-01-17T01:07:02.975Z,93.8
2019-01-17T01:08:03.299Z,95.2
2019-01-17T01:09:03.452Z,95.6
2019-01-17T01:10:03.537Z,97
2019-01-17T01:11:03.110Z,95.9
2019-01-17T01:12:03.134Z,95.9
2019-01-17T01:13:03.171Z,97.3
2019-01-17T01:14:03.211Z,97.5
2019-01-17T01:15:03.035Z,97.5
2019-01-17T01:16:03.671Z,96.3
2019-01-17T01:17:03.384Z,96.6
2019-01-17T01:18:03.267Z,96.8
2019-01-17T01:19:03.570Z,97
2019-01-17T01:20:03.097Z,95.9
2019-01-17T01:21:03.303Z,97.5
2019-01-17T01:22:03.765Z,96.6
2019-01-17T01:23:02.805Z,95.4
2019-01-17T01:24:03.106Z,99.1
2019-01-17T01:25:03.734Z,99.6
2019-01-17T01:26:03.280Z,99.4
2019-01-17T01:27:02.853Z,101.5
2019-01-17T01:28:02.988Z,100.5
2019-01-17T01:29:02.928Z,100.5
2019-01-17T01:30:02.890Z,99.8
2019-01-17T01:31:03.248Z,101
2019-01-17T01:32:03.451Z,102.9
2019-01-17T01:33:02.858Z,103.6
2019-01-17T01:34:03.020Z,104
2019-01-17T01:35:03.701Z,104.7
2019-01-17T01:36:03.242Z,105.4
2019-01-17T01:37:03.669Z,105.7
2019-01-17T01:38:03.482Z,106.4
2019-01-17T01:39:03.166Z,105.7
2019-01-17T01:40:03.025Z,104.7
2019-01-17T01:41:03.358Z,105.7
2019-01-17T01:42:03.561Z,105.7
2019-01-17T01:43:03.034Z,105
2019-01-17T01:44:03.026Z,105.2
2019-01-17T01:45:03.059Z,103.8
2019-01-17T01:46:03.410Z,103.8
2019-01-17T01:47:03.606Z,102.6
2019-01-17T01:48:02.824Z,102.4
2019-01-17T01:49:03.284Z,101.9
2019-01-17T01:50:03.564Z,101.2
2019-01-17T01:51:03.281Z,100.1
2019-01-17T01:52:03.702Z,101
2019-01-17T01:53:03.654Z,99.8
2019-01-17T01:54:03.727Z,101.2
2019-01-17T01:55:02.897Z,100.3
2019-01-17T01:56:03.507Z,100.8
2019-01-17T01:57:03.273Z,102.6
2019-01-17T01:58:03.323Z,101
2019-01-17T01:59:03.562Z,101.5
2019-01-17T02:00:03.705Z,101
2019-01-17T02:01:02.979Z,101.2
2019-01-17T02:02:03.106Z,99.6
2019-01-17T02:03:02.921Z,99.4
2019-01-17T02:04:03.692Z,98.9
2019-01-17T02:05:03.384Z,99.4
2019-01-17T02:06:03.399Z,96.8
2019-01-17T02:07:03.082Z,97.3
2019-01-17T02:08:03.687Z,95.4
2019-01-17T02:09:03.757Z,97
2019-01-17T02:10:02.956Z,95.9
2019-01-17T02:11:03.130Z,95.6
2019-01-17T02:12:02.694Z,94.7
2019-01-17T02:13:03.152Z,94.5
2019-01-17T02:14:03.598Z,95.9
2019-01-17T02:15:03.189Z,94.2
2019-01-17T02:16:03.282Z,96.6
2019-01-17T02:17:03.189Z,95.6
2019-01-17T02:18:03.377Z,97
2019-01-17T02:19:03.649Z,96.8
2019-01-17T02:20:03.688Z,96.3
2019-01-17T02:21:03.404Z,98
2019-01-17T02:22:03.599Z,96.3
2019-01-17T02:23:02.862Z,95.6
2019-01-17T02:24:03.018Z,97
2019-01-17T02:25:03.718Z,95.6
2019-01-17T02:26:03.455Z,95.2
2019-01-17T02:27:03.754Z,95.2
2019-01-17T02:28:02.784Z,95.9
2019-01-17T02:29:03.461Z,97
2019-01-17T02:30:03.037Z,97
2019-01-17T02:31:03.288Z,97.7
2019-01-17T02:32:03.288Z,98.2
2019-01-17T02:33:03.126Z,94.7
2019-01-17T02:34:03.073Z,95.6
2019-01-17T02:35:03.182Z,94.7
2019-01-17T02:36:03.816Z,96.3
2019-01-17T02:37:02.878Z,95.6
2019-01-17T02:38:03.077Z,95.6
2019-01-17T02:39:03.295Z,95.2
2019-01-17T02:40:03.051Z,94.7
2019-01-17T02:41:03.386Z,95.2
2019-01-17T02:42:03.415Z,95.4
2019-01-17T02:43:03.527Z,93.5
2019-01-17T02:44:03.804Z,94
2019-01-17T02:45:03.307Z,95.2
2019-01-17T02:46:03.667Z,94.9
2019-01-17T02:47:02.948Z,95.6
2019-01-17T02:48:03.403Z,95.9
2019-01-17T02:49:03.755Z,96.8
2019-01-17T02:50:03.197Z,96.8
2019-01-17T02:51:03.759Z,97.3
2019-01-17T02:52:02.791Z,98.7
2019-01-17T02:53:03.593Z,96.6
2019-01-17T02:54:03.499Z,97.5
2019-01-17T02:55:03.789Z,96.6
2019-01-17T02:56:03.339Z,96.8
2019-01-17T02:57:03.498Z,96.1
2019-01-17T02:58:03.301Z,95.6
2019-01-17T02:59:03.354Z,94.5
2019-01-17T03:00:03.046Z,93.5
2019-01-17T03:01:03.239Z,95.9
2019-01-17T03:02:03.574Z,94.2
2019-01-17T03:03:03.234Z,94.7
2019-01-17T03:04:03.141Z,95.4
2019-01-17T03:05:03.435Z,96.8
2019-01-17T03:06:02.832Z,94.5
2019-01-17T03:07:03.704Z,95.9
2019-01-17T03:08:03.700Z,95.2
2019-01-17T03:09:03.787Z,94.9
2019-01-17T03:10:03.350Z,95.4
2019-01-17T03:11:02.855Z,97
2019-01-17T03:12:03.287Z,95.4
2019-01-17T03:13:03.712Z,97
2019-01-17T03:14:03.085Z,97.5
2019-01-17T03:15:03.432Z,99.1
2019-01-17T03:16:03.475Z,99.8
2019-01-17T03:17:03.213Z,100.1
2019-01-17T03:18:03.605Z,99.8
2019-01-17T03:19:03.474Z,100.3
2019-01-17T03:20:03.721Z,101.9
2019-01-17T03:21:03.199Z,102.9
2019-01-17T03:22:03.777Z,100.5
2019-01-17T03:23:03.639Z,102.2
2019-01-17T03:24:03.602Z,101.5
2019-01-17T03:25:03.488Z,101
2019-01-17T03:26:03.229Z,101.5
2019-01-17T03:27:02.913Z,101.9
2019-01-17T03:28:03.292Z,102.4
2019-01-17T03:29:03.052Z,101
2019-01-17T03:30:03.522Z,101.9
2019-01-17T03:31:03.689Z,101.2
2019-01-17T03:32:03.337Z,101.2
2019-01-17T03:33:02.894Z,103.3
2019-01-17T03:34:03.902Z,103.3
2019-01-17T03:35:03.871Z,102.6
2019-01-17T03:36:03.796Z,104
2019-01-17T03:37:03.303Z,103.1
2019-01-17T03:38:03.483Z,103.6
2019-01-17T03:39:03.666Z,103.8
2019-01-17T03:40:03.354Z,103.8
2019-01-17T03:41:03.309Z,104.7
2019-01-17T03:42:03.702Z,105
2019-01-17T03:43:03.476Z,104.7
2019-01-17T03:44:03.662Z,105.7
2019-01-17T03:45:03.692Z,107.3
2019-01-17T03:46:02.911Z,106.1
2019-01-17T03:47:03.632Z,106.4
2019-01-17T03:48:03.492Z,106.8
2019-01-17T03:49:03.445Z,106.4
2019-01-17T03:50:03.739Z,105.9
2019-01-17T03:51:03.823Z,105.9
2019-01-17T03:52:03.254Z,105.7
2019-01-17T03:53:03.670Z,104.7
2019-01-17T03:54:03.725Z,104.5
2019-01-17T03:55:03.449Z,104.5
2019-01-17T03:56:03.174Z,104.7
2019-01-17T03:57:02.990Z,104.3
2019-01-17T03:58:03.909Z,105
2019-01-17T03:59:03.431Z,106.6
2019-01-17T04:00:03.640Z,106.6
2019-01-17T04:01:02.978Z,107.3
2019-01-17T04:02:03.575Z,106.4
2019-01-17T04:03:02.912Z,105.9
2019-01-17T04:04:03.570Z,107.5
2019-01-17T04:05:02.973Z,105.9
2019-01-17T04:06:03.394Z,106.4
2019-01-17T04:07:03.240Z,106.1
2019-01-17T04:08:03.586Z,106.1
2019-01-17T04:09:03.067Z,105.4
2019-01-17T04:10:03.483Z,106.6
2019-01-17T04:11:03.509Z,105.9
2019-01-17T04:12:03.761Z,105
2019-01-17T04:13:03.561Z,105.2
2019-01-17T04:14:02.868Z,104.7
2019-01-17T04:15:03.625Z,105
2019-01-17T04:16:03.019Z,103.3
2019-01-17T04:17:03.398Z,103.1
2019-01-17T04:18:03.093Z,101.7
2019-01-17T04:19:03.628Z,101.7
2019-01-17T04:20:03.729Z,101.9
2019-01-17T04:21:03.244Z,101.9
2019-01-17T04:22:03.691Z,99.6
2019-01-17T04:23:03.233Z,101.5
2019-01-17T04:24:03.295Z,102.4
2019-01-17T04:25:03.014Z,99.6
2019-01-17T04:26:03.667Z,101.5
2019-01-17T04:27:02.822Z,99.4
2019-01-17T04:28:03.560Z,100.3
2019-01-17T04:29:02.991Z,101
2019-01-17T04:30:03.469Z,100.3
2019-01-17T04:31:02.918Z,99.1
2019-01-17T04:32:03.027Z,99.4
2019-01-17T04:33:03.055Z,98.4
2019-01-17T04:34:03.811Z,97
2019-01-17T04:35:02.969Z,95.9
2019-01-17T04:36:02.890Z,96.6
2019-01-17T04:37:02.790Z,96.1
2019-01-17T04:38:03.734Z,95.6
2019-01-17T04:39:02.867Z,95.6
2019-01-17T04:40:03.521Z,95.6
2019-01-17T04:41:03.553Z,94.7
2019-01-17T04:42:03.337Z,94.5
2019-01-17T04:43:02.834Z,92.8
2019-01-17T04:44:03.457Z,93.3
2019-01-17T04:45:03.460Z,92.1
2019-01-17T04:46:03.755Z,91.2
2019-01-17T04:47:02.821Z,91.7
2019-01-17T04:48:02.883Z,92.6
2019-01-17T04:49:03.664Z,92.4
2019-01-17T04:50:03.008Z,93.5
2019-01-17T04:51:02.845Z,93.8
2019-01-17T04:52:03.386Z,94.7
2019-01-17T04:53:03.355Z,94
2019-01-17T04:54:03.325Z,94.9
2019-01-17T04:55:05.895Z,95.9
2019-01-17T04:56:02.731Z,94.7
2019-01-17T04:57:03.712Z,94.5
2019-01-17T04:58:03.444Z,93.5
2019-01-17T04:59:03.071Z,93.5
2019-01-17T05:00:03.534Z,91.4
2019-01-17T05:01:03.307Z,91.4
2019-01-17T05:02:03.716Z,90.7
2019-01-17T05:03:03.537Z,90.5
2019-01-17T05:04:03.318Z,91.9
2019-01-17T05:05:03.298Z,89.8
2019-01-17T05:06:03.788Z,91.2
2019-01-17T05:07:02.754Z,89.8
2019-01-17T05:08:03.299Z,90.7
2019-01-17T05:09:03.861Z,90
2019-01-17T05:10:03.752Z,91.9
2019-01-17T05:11:03.374Z,90
2019-01-17T05:12:03.306Z,89.1
2019-01-17T05:13:02.776Z,90.7
2019-01-17T05:14:03.595Z,90.3
2019-01-17T05:15:03.595Z,91.4
2019-01-17T05:16:03.301Z,91.2
2019-01-17T05:17:03.473Z,91.9
2019-01-17T05:18:02.998Z,91.2
2019-01-17T05:19:03.623Z,91.9
2019-01-17T05:20:03.732Z,91.7
2019-01-17T05:21:03.080Z,90.5
2019-01-17T05:22:02.993Z,89.1
2019-01-17T05:23:03.039Z,89.3
2019-01-17T05:24:03.728Z,89.3
2019-01-17T05:25:03.138Z,87.7
2019-01-17T05:26:03.641Z,89.1
2019-01-17T05:27:03.784Z,87.7
2019-01-17T05:28:03.003Z,87.7
2019-01-17T05:29:03.014Z,88.2
2019-01-17T05:30:03.476Z,88.9
2019-01-17T05:31:03.140Z,88.2
2019-01-17T05:32:03.292Z,89.6
2019-01-17T05:33:03.403Z,88.6
2019-01-17T05:34:03.504Z,87.9
2019-01-17T05:35:03.663Z,88.2
2019-01-17T05:36:02.953Z,86.1
2019-01-17T05:37:03.303Z,87.7
2019-01-17T05:38:03.103Z,88.9
2019-01-17T05:39:03.091Z,89.6
2019-01-17T05:40:03.557Z,90.5
2019-01-17T05:41:03.277Z,91
2019-01-17T05:42:03.006Z,92.4
2019-01-17T05:43:03.304Z,91.4
2019-01-17T05:44:03.645Z,95.2
2019-01-17T05:45:03.320Z,94.7
2019-01-17T05:46:03.229Z,96.1
2019-01-17T05:47:03.143Z,96.3
2019-01-17T05:48:03.591Z,95.9
2019-01-17T05:49:03.227Z,95.2
2019-01-17T05:50:03.534Z,96.1
2019-01-17T05:51:03.084Z,94.2
2019-01-17T05:52:03.421Z,94.9
2019-01-17T05:53:03.681Z,94.9
2019-01-17T05:54:03.140Z,96.3
2019-01-17T05:55:02.945Z,95.4
2019-01-17T05:56:03.001Z,97.3
2019-01-17T05:57:03.802Z,96.1
2019-01-17T05:58:03.362Z,96.8
2019-01-17T05:59:02.950Z,98.2
2019-01-17T06:00:03.591Z,98.9
2019-01-17T06:01:03.214Z,98.7
2019-01-17T06:02:03.354Z,100.1
2019-01-17T06:03:02.957Z,98
2019-01-17T06:04:03.141Z,98.2
2019-01-17T06:05:03.396Z,98.2
2019-01-17T06:06:03.318Z,99.4
2019-01-17T06:07:03.199Z,97.7
2019-01-17T06:08:03.110Z,99.4
2019-01-17T06:09:03.014Z,98.2
2019-01-17T06:10:03.033Z,99.4
2019-01-17T06:11:02.909Z,98
2019-01-17T06:12:03.729Z,98.9
2019-01-17T06:13:03.619Z,100.3
2019-01-17T06:14:03.605Z,100.3
2019-01-17T06:15:03.174Z,99.6
2019-01-17T06:16:03.568Z,98
2019-01-17T06:17:02.995Z,97.5
2019-01-17T06:18:02.968Z,96.8
2019-01-17T06:19:02.890Z,96.3
2019-01-17T06:20:03.357Z,97.7
2019-01-17T06:21:03.482Z,97.5
2019-01-17T06:22:02.799Z,98.7
2019-01-17T06:23:03.193Z,99.8
2019-01-17T06:24:03.174Z,100.8
2019-01-17T06:25:03.067Z,100.5
2019-01-17T06:26:02.980Z,100.1
2019-01-17T06:27:02.788Z,100.5
2019-01-17T06:28:03.047Z,100.1
2019-01-17T06:29:02.798Z,99.8
2019-01-17T06:30:03.704Z,99.6
2019-01-17T06:31:03.133Z,99.6
2019-01-17T06:32:03.698Z,98
2019-01-17T06:33:03.288Z,99.8
2019-01-17T06:34:02.932Z,99.1
2019-01-17T06:35:03.034Z,101.2
2019-01-17T06:36:03.272Z,99.8
2019-01-17T06:37:03.807Z,99.8
2019-01-17T06:38:03.321Z,99.4
2019-01-17T06:39:03.065Z,98.4
2019-01-17T06:40:03.746Z,96.8
2019-01-17T06:41:02.670Z,96.8
2019-01-17T06:42:02.765Z,97.5
2019-01-17T06:43:02.989Z,94.9
2019-01-17T06:44:02.745Z,94.9
2019-01-17T06:45:03.272Z,92.6
2019-01-17T06:46:03.031Z,93.3
2019-01-17T06:47:03.551Z,91
2019-01-17T06:48:02.850Z,91.4
2019-01-17T06:49:03.537Z,90.5
2019-01-17T06:50:03.656Z,91.2
2019-01-17T06:51:03.176Z,91.2
2019-01-17T06:52:03.823Z,91.4
2019-01-17T06:53:03.329Z,91.9
2019-01-17T06:54:03.183Z,91.9
2019-01-17T06:55:03.295Z,92.6
2019-01-17T06:56:03.467Z,91.2
2019-01-17T06:57:02.823Z,91.2
2019-01-17T06:58:03.460Z,90.7
2019-01-17T06:59:03.192Z,92.4
2019-01-17T07:00:03.660Z,91
2019-01-17T07:01:03.166Z,90.5
2019-01-17T07:02:03.661Z,93.3
2019-01-17T07:03:03.608Z,91
2019-01-17T07:04:03.267Z,93.3
2019-01-17T07:05:03.345Z,93.5
2019-01-17T07:06:03.561Z,93.8
2019-01-17T07:07:03.577Z,92.6
2019-01-17T07:08:02.754Z,91.4
2019-01-17T07:09:03.277Z,94
2019-01-17T07:10:02.962Z,94
2019-01-17T07:11:03.583Z,93.3
2019-01-17T07:12:02.650Z,93.8
2019-01-17T07:13:02.687Z,93.8
2019-01-17T07:14:02.781Z,94
2019-01-17T07:15:03.444Z,93.5
2019-01-17T07:16:03.562Z,94.7
2019-01-17T07:17:03.044Z,95.2
2019-01-17T07:18:02.894Z,96.3
2019-01-17T07:19:03.255Z,97
2019-01-17T07:20:03.667Z,97.7
2019-01-17T07:21:03.662Z,96.3
2019-01-17T07:22:03.467Z,96.6
2019-01-17T07:23:02.927Z,94.9
2019-01-17T07:24:02.976Z,94.5
2019-01-17T07:25:03.389Z,94.7
2019-01-17T07:26:02.931Z,93.1
2019-01-17T07:27:03.763Z,94.9
2019-01-17T07:28:03.186Z,94
2019-01-17T07:29:03.881Z,94.9
2019-01-17T07:30:03.700Z,94.9
2019-01-17T07:31:03.697Z,95.9
2019-01-17T07:32:03.740Z,94.5
2019-01-17T07:33:02.923Z,95.4
2019-01-17T07:34:03.552Z,95.4
2019-01-17T07:35:03.353Z,94.2
2019-01-17T07:36:03.616Z,95.4
2019-01-17T07:37:03.281Z,94
2019-01-17T07:38:02.904Z,94.5
2019-01-17T07:39:03.567Z,95.9
2019-01-17T07:40:03.453Z,93.1
2019-01-17T07:41:03.990Z,94.5
2019-01-17T07:42:03.362Z,94.2
2019-01-17T07:43:03.422Z,94.7
2019-01-17T07:44:03.393Z,94.7
2019-01-17T07:45:03.205Z,94.7
2019-01-17T07:46:03.841Z,95.4
2019-01-17T07:47:03.392Z,94.9
2019-01-17T07:48:03.720Z,95.6
2019-01-17T07:49:02.807Z,94.9
2019-01-17T07:50:03.423Z,94.5
2019-01-17T07:51:03.307Z,94.2
2019-01-17T07:52:03.798Z,93.5
2019-01-17T07:53:03.290Z,92.6
2019-01-17T07:54:02.879Z,93.8
2019-01-17T07:55:02.888Z,93.3
2019-01-17T07:56:02.937Z,92.1
2019-01-17T07:57:03.103Z,91.4
2019-01-17T07:58:02.936Z,92.6
2019-01-17T07:59:03.541Z,92.1
2019-01-17T08:00:03.551Z,89.8
2019-01-17T08:01:03.549Z,89.8
2019-01-17T08:02:03.603Z,91
2019-01-17T08:03:03.875Z,88.9
2019-01-17T08:04:02.986Z,90.3
2019-01-17T08:05:02.953Z,89.8
2019-01-17T08:06:03.118Z,91.4
2019-01-17T08:07:03.449Z,89.8
2019-01-17T08:08:03.367Z,91.2
2019-01-17T08:09:03.708Z,91.2
2019-01-17T08:10:03.427Z,91.9
2019-01-17T08:11:03.231Z,89.6
2019-01-17T08:12:05.443Z,88.6
2019-01-17T08:13:03.552Z,89.8
2019-01-17T08:14:03.112Z,88.9
2019-01-17T08:15:03.392Z,86.8
2019-01-17T08:16:03.090Z,87.5
2019-01-17T08:17:03.358Z,86.3
2019-01-17T08:18:02.831Z,85.8
2019-01-17T08:19:03.866Z,85.1
2019-01-17T08:20:03.134Z,83.7
2019-01-17T08:21:02.917Z,83.5
2019-01-17T08:22:03.265Z,84.2
2019-01-17T08:23:02.736Z,85.8
2019-01-17T08:24:03.096Z,85.6
2019-01-17T08:25:03.316Z,87.2
2019-01-17T08:26:03.152Z,87.2
2019-01-17T08:27:03.664Z,87.9
2019-01-17T08:28:02.771Z,86.8
2019-01-17T08:29:02.990Z,87.2
2019-01-17T08:30:03.077Z,86.5
2019-01-17T08:31:03.720Z,87.5
2019-01-17T08:32:03.252Z,86.3
2019-01-17T08:33:03.557Z,86.5
2019-01-17T08:34:03.027Z,86.8
2019-01-17T08:35:03.568Z,85.4
2019-01-17T08:36:03.581Z,87
2019-01-17T08:37:03.494Z,86.8
2019-01-17T08:38:03.576Z,87.9
2019-01-17T08:39:03.100Z,87.7
2019-01-17T08:40:03.821Z,87.2
2019-01-17T08:41:03.356Z,87.2
2019-01-17T08:42:03.697Z,87.2
2019-01-17T08:43:02.881Z,87
2019-01-17T08:44:03.231Z,88.6
2019-01-17T08:45:03.159Z,87.9
2019-01-17T08:46:03.512Z,87.9
2019-01-17T08:47:03.124Z,88.2
2019-01-17T08:48:03.084Z,87.2
2019-01-17T08:49:03.662Z,88.2
2019-01-17T08:50:02.999Z,87.5
2019-01-17T08:51:03.593Z,88.6
2019-01-17T08:52:03.136Z,86.3
2019-01-17T08:53:03.755Z,87.7
2019-01-17T08:54:03.749Z,87.5
2019-01-17T08:55:02.944Z,88.2
2019-01-17T08:56:02.915Z,88.6
2019-01-17T08:57:03.317Z,87.7
2019-01-17T08:58:02.863Z,89.8
2019-01-17T08:59:03.216Z,89.3
2019-01-17T09:00:03.637Z,89.3
2019-01-17T09:01:02.968Z,88.9
2019-01-17T09:02:02.998Z,91.2
2019-01-17T09:03:03.397Z,90
2019-01-17T09:04:03.560Z,90.7
2019-01-17T09:05:03.310Z,90
2019-01-17T09:06:03.011Z,89.6
2019-01-17T09:07:03.028Z,87.5
2019-01-17T09:08:02.985Z,88.4
2019-01-17T09:09:03.771Z,89.1
2019-01-17T09:10:02.913Z,89.8
2019-01-17T09:11:03.475Z,90.3
2019-01-17T09:12:03.651Z,89.6
2019-01-17T09:13:02.955Z,91
2019-01-17T09:14:03.749Z,92.1
2019-01-17T09:15:03.514Z,91.7
2019-01-17T09:16:03.452Z,91.7
2019-01-17T09:17:03.737Z,92.8
2019-01-17T09:18:03.424Z,91.9
2019-01-17T09:19:02.999Z,93.1
2019-01-17T09:20:03.286Z,92.1
2019-01-17T09:21:03.860Z,91.9
2019-01-17T09:22:03.244Z,91.4
2019-01-17T09:23:03.606Z,92.8
2019-01-17T09:24:03.717Z,90
2019-01-17T09:25:03.114Z,91.2
2019-01-17T09:26:08.007Z,90.3
2019-01-17T09:27:02.808Z,91
2019-01-17T09:28:03.208Z,89.6
2019-01-17T09:29:02.956Z,87.7
2019-01-17T09:30:03.686Z,88.9
2019-01-17T09:31:03.181Z,87.7
2019-01-17T09:32:03.358Z,88.9
2019-01-17T09:33:03.037Z,88.9
2019-01-17T09:34:03.198Z,87.9
2019-01-17T09:35:03.045Z,85.4
2019-01-17T09:36:03.544Z,87.5
2019-01-17T09:37:02.813Z,85.6
2019-01-17T09:38:03.171Z,86.8
2019-01-17T09:39:02.925Z,86.8
2019-01-17T09:40:03.108Z,89.3
2019-01-17T09:41:03.609Z,89.6
2019-01-17T09:42:03.522Z,90.3
2019-01-17T09:43:03.012Z,90.5
2019-01-17T09:44:03.212Z,91.7
2019-01-17T09:45:03.069Z,91.4
2019-01-17T09:46:02.878Z,90.5
2019-01-17T09:47:03.102Z,92.6
2019-01-17T09:48:02.926Z,90.3
2019-01-17T09:49:03.713Z,93.5
2019-01-17T09:50:03.610Z,92.6
2019-01-17T09:51:03.450Z,94
2019-01-17T09:52:03.330Z,92.4
2019-01-17T09:53:03.527Z,92.8
2019-01-17T09:54:02.918Z,91.2
2019-01-17T09:55:03.450Z,94.7
2019-01-17T09:56:03.014Z,93.3
2019-01-17T09:57:03.170Z,94.5
2019-01-17T09:58:03.672Z,94.7
2019-01-17T09:59:03.281Z,94.5
2019-01-17T10:00:03.734Z,93.5
2019-01-17T10:01:02.838Z,92.6
2019-01-17T10:02:02.815Z,93.5
2019-01-17T10:03:03.571Z,93.5
2019-01-17T10:04:03.083Z,94.7
2019-01-17T10:05:03.135Z,94.7
2019-01-17T10:06:02.954Z,94.9
2019-01-17T10:07:03.557Z,96.6
2019-01-17T10:08:02.867Z,95.2
2019-01-17T10:09:03.568Z,96.8
2019-01-17T10:10:03.863Z,96.1
2019-01-17T10:11:03.738Z,94.9
2019-01-17T10:12:02.871Z,95.2
2019-01-17T10:13:03.671Z,94.9
2019-01-17T10:14:02.982Z,94.2
2019-01-17T10:15:03.366Z,94.9
2019-01-17T10:16:03.742Z,94
2019-01-17T10:17:02.831Z,94.5
2019-01-17T10:18:03.196Z,95.4
2019-01-17T10:19:03.185Z,96.3
2019-01-17T10:20:03.621Z,96.8
2019-01-17T10:21:03.088Z,96.1
2019-01-17T10:22:02.990Z,96.8
2019-01-17T10:23:03.502Z,98.2
2019-01-17T10:24:02.961Z,94.7
2019-01-17T10:25:03.476Z,98
2019-01-17T10:26:03.749Z,96.1
2019-01-17T10:27:03.781Z,97.3
2019-01-17T10:28:03.068Z,97.3
2019-01-17T10:29:03.375Z,98.7
2019-01-17T10:30:03.088Z,99.4
2019-01-17T10:31:03.313Z,99.1
2019-01-17T10:32:03.405Z,99.6
2019-01-17T10:33:03.685Z,100.5
2019-01-17T10:34:02.790Z,101
2019-01-17T10:35:03.724Z,101.7
2019-01-17T10:36:02.813Z,103.8
2019-01-17T10:37:03.001Z,103.8
2019-01-17T10:38:03.491Z,103.1
2019-01-17T10:39:02.862Z,102.9
2019-01-17T10:40:03.815Z,103.6
2019-01-17T10:41:03.520Z,102.6
2019-01-17T10:42:03.634Z,101.9
2019-01-17T10:43:03.374Z,99.8
2019-01-17T10:44:03.347Z,100.8
2019-01-17T10:45:02.847Z,100.8
2019-01-17T10:46:03.741Z,98.2
2019-01-17T10:47:03.048Z,100.1
2019-01-17T10:48:02.895Z,96.6
2019-01-17T10:49:03.765Z,98.7
2019-01-17T10:50:03.098Z,98.7
2019-01-17T10:51:03.592Z,98.4
2019-01-17T10:52:03.508Z,100.1
2019-01-17T10:53:02.918Z,98.2
2019-01-17T10:54:03.271Z,97
2019-01-17T10:55:03.734Z,98.4
2019-01-17T10:56:03.394Z,96.1
2019-01-17T10:57:03.254Z,96.1
2019-01-17T10:58:03.152Z,96.3
2019-01-17T10:59:03.195Z,96.1
2019-01-17T11:00:03.318Z,96.6
2019-01-17T11:01:03.291Z,96.6
2019-01-17T11:02:02.888Z,97
2019-01-17T11:03:03.803Z,97.3
2019-01-17T11:04:03.781Z,96.6
2019-01-17T11:05:03.793Z,94.9
2019-01-17T11:06:03.727Z,94.7
2019-01-17T11:07:03.570Z,94.9
2019-01-17T11:08:03.704Z,95.4
2019-01-17T11:09:03.128Z,95.2
2019-01-17T11:10:03.397Z,94.9
2019-01-17T11:11:03.194Z,93.8
2019-01-17T11:12:02.893Z,94.7
2019-01-17T11:13:03.111Z,95.2
2019-01-17T11:14:02.923Z,94.7
2019-01-17T11:15:03.219Z,96.6
2019-01-17T11:16:03.663Z,96.3
2019-01-17T11:17:03.530Z,95.9
2019-01-17T11:18:03.577Z,96.1
2019-01-17T11:19:02.554Z,96.8
2019-01-17T11:20:02.948Z,96.6
2019-01-17T11:21:03.233Z,96.8
2019-01-17T11:22:03.027Z,95.4
2019-01-17T11:23:03.484Z,97.3
2019-01-17T11:24:03.621Z,94.9
2019-01-17T11:25:03.068Z,95.6
2019-01-17T11:26:03.148Z,95.6
2019-01-17T11:27:03.668Z,93.5
2019-01-17T11:28:03.097Z,94.5
2019-01-17T11:29:02.821Z,94
2019-01-17T11:30:03.332Z,94.9
2019-01-17T11:31:02.692Z,94.5
2019-01-17T11:32:03.380Z,95.6
2019-01-17T11:33:03.440Z,94.9
2019-01-17T11:34:03.036Z,95.2
2019-01-17T11:35:03.011Z,93.5
2019-01-17T11:36:02.983Z,94.5
2019-01-17T11:37:02.704Z,92.4
2019-01-17T11:38:03.314Z,91.7
2019-01-17T11:39:02.985Z,91.9
2019-01-17T11:40:03.305Z,92.6
2019-01-17T11:41:03.102Z,92.8
2019-01-17T11:42:02.896Z,93.1
2019-01-17T11:43:03.010Z,92.6
2019-01-17T11:44:03.306Z,91.4
2019-01-17T11:45:03.252Z,94.2
2019-01-17T11:46:03.580Z,91.7
2019-01-17T11:47:03.645Z,94.2
2019-01-17T11:48:03.665Z,92.4
2019-01-17T11:49:02.998Z,93.5
2019-01-17T11:50:03.311Z,93.1
2019-01-17T11:51:03.058Z,93.3
2019-01-17T11:52:03.127Z,93.8
2019-01-17T11:53:03.446Z,92.8
2019-01-17T11:54:03.646Z,93.5
2019-01-17T11:55:02.955Z,92.6
2019-01-17T11:56:03.333Z,92.1
2019-01-17T11:57:03.738Z,92.6
2019-01-17T11:58:03.056Z,91.9
2019-01-17T11:59:02.920Z,91.4
2019-01-17T12:00:02.829Z,91.2
2019-01-17T12:01:03.060Z,90.7
2019-01-17T12:02:03.477Z,89.1
2019-01-17T12:03:03.292Z,90
2019-01-17T12:04:03.380Z,88.2
2019-01-17T12:05:03.170Z,89.6
2019-01-17T12:06:03.487Z,88.2
2019-01-17T12:07:03.001Z,89.3
2019-01-17T12:08:03.581Z,89.8
2019-01-17T12:09:03.112Z,89.1
2019-01-17T12:10:03.703Z,87.9
2019-01-17T12:11:03.290Z,87.9
2019-01-17T12:12:03.393Z,87.9
2019-01-17T12:13:02.799Z,87.5
2019-01-17T12:14:02.862Z,86.5
2019-01-17T12:15:03.770Z,87
2019-01-17T12:16:02.850Z,85.6
2019-01-17T12:17:03.425Z,85.6
2019-01-17T12:18:02.927Z,84.4
2019-01-17T12:19:03.240Z,85.1
2019-01-17T12:20:03.569Z,83.7
2019-01-17T12:21:03.631Z,84.2
2019-01-17T12:22:02.782Z,84
2019-01-17T12:23:03.020Z,84.4
2019-01-17T12:24:03.055Z,86.1
2019-01-17T12:25:03.319Z,85.8
2019-01-17T12:26:03.836Z,87.5
2019-01-17T12:27:02.884Z,87.2
2019-01-17T12:28:02.873Z,87.2
2019-01-17T12:29:03.500Z,85.8
2019-01-17T12:30:02.960Z,87
2019-01-17T12:31:03.647Z,85.6
2019-01-17T12:32:03.568Z,85.4
2019-01-17T12:33:03.738Z,86.8
2019-01-17T12:34:03.252Z,86.1
2019-01-17T12:35:03.072Z,87.5
2019-01-17T12:36:03.625Z,87.2
2019-01-17T12:37:03.590Z,88.2
2019-01-17T12:38:03.707Z,86.3
2019-01-17T12:39:02.831Z,87
2019-01-17T12:40:02.901Z,87.2
2019-01-17T12:41:02.931Z,86.8
2019-01-17T12:42:03.022Z,86.8
2019-01-17T12:43:03.558Z,87.2
2019-01-17T12:44:03.483Z,87
2019-01-17T12:45:03.653Z,88.2
2019-01-17T12:46:03.258Z,87.9
2019-01-17T12:47:03.552Z,88.2
2019-01-17T12:48:03.319Z,87.5
2019-01-17T12:49:02.764Z,88.4
2019-01-17T12:50:03.062Z,86.8
2019-01-17T12:51:02.902Z,87.5
2019-01-17T12:52:03.108Z,86.8
2019-01-17T12:53:03.015Z,87.7
2019-01-17T12:54:03.201Z,87.5
2019-01-17T12:55:03.812Z,88.4
2019-01-17T12:56:03.402Z,88.2
2019-01-17T12:57:03.000Z,89.8
2019-01-17T12:58:03.162Z,91
2019-01-17T12:59:03.130Z,92.8
2019-01-17T13:00:08.140Z,91.7
2019-01-17T13:01:02.795Z,93.8
2019-01-17T13:02:03.128Z,93.3
2019-01-17T13:03:02.798Z,94.7
2019-01-17T13:04:03.577Z,93.5
2019-01-17T13:05:02.769Z,94.7
2019-01-17T13:06:02.996Z,92.6
2019-01-17T13:07:03.018Z,94.2
2019-01-17T13:08:03.171Z,93.3
2019-01-17T13:09:02.983Z,95.4
2019-01-17T13:10:03.290Z,94.5
2019-01-17T13:11:03.676Z,93.8
2019-01-17T13:12:02.960Z,93.5
2019-01-17T13:13:03.521Z,94
2019-01-17T13:14:03.674Z,94
2019-01-17T13:15:03.295Z,94
2019-01-17T13:16:03.385Z,95.6
2019-01-17T13:17:03.397Z,93.8
2019-01-17T13:18:03.439Z,96.8
2019-01-17T13:19:03.347Z,97.3